Bushy Park, Australia
Current Conditions -  °F | °C
As of 7:30 PM on Friday 21 Nov 2014 (Local Time) from YMHB Reporting Station
Few Clouds Few Clouds  
Wind Chill: 55°   Ceiling: Unl
Heat Index: 55°   Visibility: 6mi
Dew Point: 45°   Wind: 10mph
Humidity: 67%   Direction: 160°SSE
Pressure: 29.77"   Gusts: NA
Location:  42.7°S, 146.88°E
Report Text: YMHB 210830Z 16009KT 9999 FEW055 13/07 Q1008
Loading
Personal Weather Stations






























Interactive Weather Map New forecast layout! Learn more

10-Day Weather Forecast

Advertisements
Track Severe Weather on mobile